sensor_id;sensor_type;location;lat;lon;timestamp;P1;durP1;ratioP1;P2;durP2;ratioP2
84931;SDS011;75193;53.980;13.902;2024-01-06T00:00:53;6.85;;;4.03;;
84931;SDS011;75193;53.980;13.902;2024-01-06T00:03:18;10.80;;;5.10;;
84931;SDS011;75193;53.980;13.902;2024-01-06T00:05:43;7.55;;;4.65;;
84931;SDS011;75193;53.980;13.902;2024-01-06T00:08:09;7.63;;;4.60;;
84931;SDS011;75193;53.980;13.902;2024-01-06T00:10:34;6.63;;;3.63;;
84931;SDS011;75193;53.980;13.902;2024-01-06T00:12:59;4.00;;;2.25;;
84931;SDS011;75193;53.980;13.902;2024-01-06T00:15:25;9.35;;;4.93;;
84931;SDS011;75193;53.980;13.902;2024-01-06T00:17:50;10.40;;;5.13;;
84931;SDS011;75193;53.980;13.902;2024-01-06T00:20:15;9.68;;;4.35;;
84931;SDS011;75193;53.980;13.902;2024-01-06T00:22:41;9.05;;;3.90;;
84931;SDS011;75193;53.980;13.902;2024-01-06T00:25:07;5.50;;;3.97;;
84931;SDS011;75193;53.980;13.902;2024-01-06T00:27:33;8.82;;;3.72;;
84931;SDS011;75193;53.980;13.902;2024-01-06T00:29:59;8.85;;;4.07;;
84931;SDS011;75193;53.980;13.902;2024-01-06T00:32:24;9.85;;;5.10;;
84931;SDS011;75193;53.980;13.902;2024-01-06T00:34:49;10.02;;;4.57;;
84931;SDS011;75193;53.980;13.902;2024-01-06T00:37:15;6.88;;;4.55;;
84931;SDS011;75193;53.980;13.902;2024-01-06T00:39:40;8.98;;;4.50;;
84931;SDS011;75193;53.980;13.902;2024-01-06T00:42:05;7.55;;;4.45;;
84931;SDS011;75193;53.980;13.902;2024-01-06T00:44:31;10.05;;;6.13;;
84931;SDS011;75193;53.980;13.902;2024-01-06T00:46:56;9.20;;;5.55;;
84931;SDS011;75193;53.980;13.902;2024-01-06T00:49:21;9.85;;;5.35;;
84931;SDS011;75193;53.980;13.902;2024-01-06T00:51:47;7.50;;;5.30;;
84931;SDS011;75193;53.980;13.902;2024-01-06T00:54:12;9.02;;;5.32;;
84931;SDS011;75193;53.980;13.902;2024-01-06T00:56:38;9.43;;;6.05;;
84931;SDS011;75193;53.980;13.902;2024-01-06T00:59:03;10.30;;;5.90;;
84931;SDS011;75193;53.980;13.902;2024-01-06T01:01:29;8.43;;;5.55;;
84931;SDS011;75193;53.980;13.902;2024-01-06T01:03:54;7.00;;;4.57;;
84931;SDS011;75193;53.980;13.902;2024-01-06T01:06:20;11.35;;;5.63;;
84931;SDS011;75193;53.980;13.902;2024-01-06T01:08:45;10.48;;;5.45;;
84931;SDS011;75193;53.980;13.902;2024-01-06T01:11:11;8.00;;;5.70;;
84931;SDS011;75193;53.980;13.902;2024-01-06T01:13:36;9.05;;;5.97;;
84931;SDS011;75193;53.980;13.902;2024-01-06T01:16:02;10.43;;;5.80;;
84931;SDS011;75193;53.980;13.902;2024-01-06T01:20:53;8.05;;;6.28;;
84931;SDS011;75193;53.980;13.902;2024-01-06T01:23:19;9.68;;;6.30;;
84931;SDS011;75193;53.980;13.902;2024-01-06T01:25:44;7.18;;;5.22;;
84931;SDS011;75193;53.980;13.902;2024-01-06T01:28:09;6.95;;;4.97;;
84931;SDS011;75193;53.980;13.902;2024-01-06T01:30:35;8.88;;;5.72;;
84931;SDS011;75193;53.980;13.902;2024-01-06T01:33:00;7.10;;;4.80;;
84931;SDS011;75193;53.980;13.902;2024-01-06T01:35:26;8.15;;;5.88;;
84931;SDS011;75193;53.980;13.902;2024-01-06T01:37:51;8.45;;;5.75;;
84931;SDS011;75193;53.980;13.902;2024-01-06T01:40:16;8.10;;;5.32;;
84931;SDS011;75193;53.980;13.902;2024-01-06T01:42:42;8.90;;;6.57;;
84931;SDS011;75193;53.980;13.902;2024-01-06T01:45:08;9.95;;;6.22;;
84931;SDS011;75193;53.980;13.902;2024-01-06T01:47:33;9.35;;;6.00;;
84931;SDS011;75193;53.980;13.902;2024-01-06T01:49:59;9.95;;;6.60;;
84931;SDS011;75193;53.980;13.902;2024-01-06T01:52:26;10.20;;;6.07;;
84931;SDS011;75193;53.980;13.902;2024-01-06T01:54:52;8.88;;;5.50;;
84931;SDS011;75193;53.980;13.902;2024-01-06T01:57:17;9.93;;;6.50;;
84931;SDS011;75193;53.980;13.902;2024-01-06T01:59:43;10.70;;;6.65;;
84931;SDS011;75193;53.980;13.902;2024-01-06T02:02:10;19.92;;;7.50;;
84931;SDS011;75193;53.980;13.902;2024-01-06T02:04:35;10.98;;;7.43;;
84931;SDS011;75193;53.980;13.902;2024-01-06T02:07:01;8.88;;;7.03;;
84931;SDS011;75193;53.980;13.902;2024-01-06T02:09:27;9.43;;;5.05;;
84931;SDS011;75193;53.980;13.902;2024-01-06T02:11:56;10.43;;;6.00;;
84931;SDS011;75193;53.980;13.902;2024-01-06T02:14:22;9.25;;;6.10;;
84931;SDS011;75193;53.980;13.902;2024-01-06T02:16:48;12.50;;;6.32;;
84931;SDS011;75193;53.980;13.902;2024-01-06T02:19:13;8.52;;;6.45;;
84931;SDS011;75193;53.980;13.902;2024-01-06T02:21:43;7.95;;;5.32;;
84931;SDS011;75193;53.980;13.902;2024-01-06T02:24:09;9.73;;;5.65;;
84931;SDS011;75193;53.980;13.902;2024-01-06T02:26:35;8.35;;;5.30;;
84931;SDS011;75193;53.980;13.902;2024-01-06T02:29:00;8.38;;;5.90;;
84931;SDS011;75193;53.980;13.902;2024-01-06T02:31:26;13.65;;;5.57;;
84931;SDS011;75193;53.980;13.902;2024-01-06T02:33:52;9.07;;;5.88;;
84931;SDS011;75193;53.980;13.902;2024-01-06T02:36:18;8.98;;;5.95;;
84931;SDS011;75193;53.980;13.902;2024-01-06T02:38:43;9.50;;;5.10;;
84931;SDS011;75193;53.980;13.902;2024-01-06T02:41:09;13.07;;;6.25;;
84931;SDS011;75193;53.980;13.902;2024-01-06T02:43:34;8.93;;;5.85;;
84931;SDS011;75193;53.980;13.902;2024-01-06T02:46:00;9.38;;;5.78;;
84931;SDS011;75193;53.980;13.902;2024-01-06T02:48:25;18.08;;;7.03;;
84931;SDS011;75193;53.980;13.902;2024-01-06T02:50:51;14.43;;;5.78;;
84931;SDS011;75193;53.980;13.902;2024-01-06T02:53:16;13.25;;;6.20;;
84931;SDS011;75193;53.980;13.902;2024-01-06T02:55:42;8.90;;;6.38;;
84931;SDS011;75193;53.980;13.902;2024-01-06T02:58:07;9.98;;;6.32;;
84931;SDS011;75193;53.980;13.902;2024-01-06T03:00:32;8.95;;;6.32;;
84931;SDS011;75193;53.980;13.902;2024-01-06T03:02:58;13.95;;;6.63;;
84931;SDS011;75193;53.980;13.902;2024-01-06T03:05:23;20.05;;;7.35;;
84931;SDS011;75193;53.980;13.902;2024-01-06T03:07:49;14.60;;;8.43;;
84931;SDS011;75193;53.980;13.902;2024-01-06T03:10:14;10.25;;;6.68;;
84931;SDS011;75193;53.980;13.902;2024-01-06T03:12:40;11.25;;;5.70;;
84931;SDS011;75193;53.980;13.902;2024-01-06T03:15:05;11.55;;;6.57;;
84931;SDS011;75193;53.980;13.902;2024-01-06T03:17:31;12.70;;;6.95;;
84931;SDS011;75193;53.980;13.902;2024-01-06T03:19:57;8.30;;;5.22;;
84931;SDS011;75193;53.980;13.902;2024-01-06T03:22:22;9.70;;;5.97;;
84931;SDS011;75193;53.980;13.902;2024-01-06T03:24:48;11.70;;;6.95;;
84931;SDS011;75193;53.980;13.902;2024-01-06T03:27:13;9.93;;;6.22;;
84931;SDS011;75193;53.980;13.902;2024-01-06T03:29:39;8.48;;;6.03;;
84931;SDS011;75193;53.980;13.902;2024-01-06T03:32:05;8.40;;;4.78;;
84931;SDS011;75193;53.980;13.902;2024-01-06T03:34:30;10.73;;;5.75;;
84931;SDS011;75193;53.980;13.902;2024-01-06T03:36:56;11.93;;;6.63;;
84931;SDS011;75193;53.980;13.902;2024-01-06T03:39:21;6.97;;;5.10;;
84931;SDS011;75193;53.980;13.902;2024-01-06T03:41:48;9.00;;;5.38;;
84931;SDS011;75193;53.980;13.902;2024-01-06T03:46:39;8.85;;;5.15;;
84931;SDS011;75193;53.980;13.902;2024-01-06T03:49:04;10.55;;;6.47;;
84931;SDS011;75193;53.980;13.902;2024-01-06T03:51:30;8.65;;;5.85;;
84931;SDS011;75193;53.980;13.902;2024-01-06T03:53:55;9.13;;;5.70;;
84931;SDS011;75193;53.980;13.902;2024-01-06T03:56:21;7.13;;;5.47;;
84931;SDS011;75193;53.980;13.902;2024-01-06T03:58:46;9.82;;;5.60;;
84931;SDS011;75193;53.980;13.902;2024-01-06T04:01:11;8.48;;;4.68;;
84931;SDS011;75193;53.980;13.902;2024-01-06T04:03:38;7.35;;;4.90;;
84931;SDS011;75193;53.980;13.902;2024-01-06T04:06:05;6.78;;;4.72;;
84931;SDS011;75193;53.980;13.902;2024-01-06T04:08:31;7.35;;;4.32;;
84931;SDS011;75193;53.980;13.902;2024-01-06T04:10:57;6.72;;;4.75;;
84931;SDS011;75193;53.980;13.902;2024-01-06T04:13:25;6.57;;;4.00;;
84931;SDS011;75193;53.980;13.902;2024-01-06T04:15:51;8.85;;;4.88;;
84931;SDS011;75193;53.980;13.902;2024-01-06T04:18:16;7.47;;;4.53;;
84931;SDS011;75193;53.980;13.902;2024-01-06T04:20:42;6.30;;;3.85;;
84931;SDS011;75193;53.980;13.902;2024-01-06T04:23:07;10.23;;;5.00;;
84931;SDS011;75193;53.980;13.902;2024-01-06T04:25:33;7.45;;;3.95;;
84931;SDS011;75193;53.980;13.902;2024-01-06T04:27:58;7.18;;;4.30;;
84931;SDS011;75193;53.980;13.902;2024-01-06T04:30:24;6.35;;;4.32;;
84931;SDS011;75193;53.980;13.902;2024-01-06T04:32:51;5.97;;;4.28;;
84931;SDS011;75193;53.980;13.902;2024-01-06T04:35:16;5.70;;;3.95;;
84931;SDS011;75193;53.980;13.902;2024-01-06T04:37:42;6.20;;;4.43;;
84931;SDS011;75193;53.980;13.902;2024-01-06T04:40:08;5.30;;;3.58;;
84931;SDS011;75193;53.980;13.902;2024-01-06T04:42:33;4.75;;;3.72;;
84931;SDS011;75193;53.980;13.902;2024-01-06T04:44:59;5.22;;;3.55;;
84931;SDS011;75193;53.980;13.902;2024-01-06T04:47:24;4.60;;;3.13;;
84931;SDS011;75193;53.980;13.902;2024-01-06T04:49:50;3.90;;;3.00;;
84931;SDS011;75193;53.980;13.902;2024-01-06T04:52:15;4.70;;;3.30;;
84931;SDS011;75193;53.980;13.902;2024-01-06T04:54:41;4.18;;;3.17;;
84931;SDS011;75193;53.980;13.902;2024-01-06T04:57:06;4.32;;;2.97;;
84931;SDS011;75193;53.980;13.902;2024-01-06T04:59:32;5.47;;;3.17;;
84931;SDS011;75193;53.980;13.902;2024-01-06T05:01:57;4.20;;;3.17;;
84931;SDS011;75193;53.980;13.902;2024-01-06T05:04:23;5.18;;;3.10;;
84931;SDS011;75193;53.980;13.902;2024-01-06T05:06:50;4.15;;;2.67;;
84931;SDS011;75193;53.980;13.902;2024-01-06T05:09:16;3.55;;;3.00;;
84931;SDS011;75193;53.980;13.902;2024-01-06T05:11:45;3.65;;;2.80;;
84931;SDS011;75193;53.980;13.902;2024-01-06T05:14:11;4.35;;;3.35;;
84931;SDS011;75193;53.980;13.902;2024-01-06T05:16:37;4.72;;;2.67;;
84931;SDS011;75193;53.980;13.902;2024-01-06T05:19:02;2.95;;;2.08;;
84931;SDS011;75193;53.980;13.902;2024-01-06T05:21:28;2.85;;;2.17;;
84931;SDS011;75193;53.980;13.902;2024-01-06T05:23:54;2.60;;;1.80;;
84931;SDS011;75193;53.980;13.902;2024-01-06T05:26:19;2.88;;;1.95;;
84931;SDS011;75193;53.980;13.902;2024-01-06T05:28:45;2.90;;;2.00;;
84931;SDS011;75193;53.980;13.902;2024-01-06T05:31:10;3.17;;;2.10;;
84931;SDS011;75193;53.980;13.902;2024-01-06T05:33:36;2.88;;;2.15;;
84931;SDS011;75193;53.980;13.902;2024-01-06T05:36:01;3.17;;;1.90;;
84931;SDS011;75193;53.980;13.902;2024-01-06T05:38:27;5.25;;;2.22;;
84931;SDS011;75193;53.980;13.902;2024-01-06T05:40:52;3.72;;;2.42;;
84931;SDS011;75193;53.980;13.902;2024-01-06T05:43:18;2.72;;;2.00;;
84931;SDS011;75193;53.980;13.902;2024-01-06T05:45:43;2.35;;;1.85;;
84931;SDS011;75193;53.980;13.902;2024-01-06T05:48:10;2.90;;;2.10;;
84931;SDS011;75193;53.980;13.902;2024-01-06T05:53:05;2.13;;;1.73;;
84931;SDS011;75193;53.980;13.902;2024-01-06T05:55:30;2.33;;;1.73;;
84931;SDS011;75193;53.980;13.902;2024-01-06T05:57:56;3.15;;;2.22;;
84931;SDS011;75193;53.980;13.902;2024-01-06T06:00:21;3.65;;;2.20;;
84931;SDS011;75193;53.980;13.902;2024-01-06T06:02:47;2.88;;;1.95;;
84931;SDS011;75193;53.980;13.902;2024-01-06T06:05:12;3.13;;;1.63;;
84931;SDS011;75193;53.980;13.902;2024-01-06T06:07:38;4.00;;;2.00;;
84931;SDS011;75193;53.980;13.902;2024-01-06T06:10:07;3.47;;;2.10;;
84931;SDS011;75193;53.980;13.902;2024-01-06T06:12:34;2.60;;;1.90;;
84931;SDS011;75193;53.980;13.902;2024-01-06T06:15:00;4.03;;;2.00;;
84931;SDS011;75193;53.980;13.902;2024-01-06T06:17:26;2.88;;;1.92;;
84931;SDS011;75193;53.980;13.902;2024-01-06T06:19:51;2.85;;;1.90;;
84931;SDS011;75193;53.980;13.902;2024-01-06T06:22:16;3.53;;;1.92;;
84931;SDS011;75193;53.980;13.902;2024-01-06T06:24:42;2.40;;;2.00;;
84931;SDS011;75193;53.980;13.902;2024-01-06T06:27:08;2.38;;;1.73;;
84931;SDS011;75193;53.980;13.902;2024-01-06T06:29:33;4.20;;;1.90;;
84931;SDS011;75193;53.980;13.902;2024-01-06T06:31:59;3.25;;;2.10;;
84931;SDS011;75193;53.980;13.902;2024-01-06T06:34:25;2.97;;;1.60;;
84931;SDS011;75193;53.980;13.902;2024-01-06T06:36:50;3.28;;;2.03;;
84931;SDS011;75193;53.980;13.902;2024-01-06T06:39:15;2.55;;;1.80;;
84931;SDS011;75193;53.980;13.902;2024-01-06T06:41:41;3.03;;;1.80;;
84931;SDS011;75193;53.980;13.902;2024-01-06T06:44:06;3.00;;;1.90;;
84931;SDS011;75193;53.980;13.902;2024-01-06T06:46:32;2.63;;;1.73;;
84931;SDS011;75193;53.980;13.902;2024-01-06T06:48:57;3.10;;;1.73;;
84931;SDS011;75193;53.980;13.902;2024-01-06T06:51:23;3.15;;;1.90;;
84931;SDS011;75193;53.980;13.902;2024-01-06T06:53:51;3.28;;;1.83;;
84931;SDS011;75193;53.980;13.902;2024-01-06T06:56:17;2.00;;;1.80;;
84931;SDS011;75193;53.980;13.902;2024-01-06T06:58:43;2.60;;;1.75;;
84931;SDS011;75193;53.980;13.902;2024-01-06T07:01:08;2.42;;;1.92;;
84931;SDS011;75193;53.980;13.902;2024-01-06T07:03:34;2.72;;;1.80;;
84931;SDS011;75193;53.980;13.902;2024-01-06T07:05:59;3.08;;;2.20;;
84931;SDS011;75193;53.980;13.902;2024-01-06T07:08:25;3.17;;;1.85;;
84931;SDS011;75193;53.980;13.902;2024-01-06T07:10:50;3.08;;;2.13;;
84931;SDS011;75193;53.980;13.902;2024-01-06T07:13:15;3.20;;;2.15;;
84931;SDS011;75193;53.980;13.902;2024-01-06T07:15:41;2.58;;;2.00;;
84931;SDS011;75193;53.980;13.902;2024-01-06T07:18:07;2.72;;;1.92;;
84931;SDS011;75193;53.980;13.902;2024-01-06T07:20:32;2.78;;;1.90;;
84931;SDS011;75193;53.980;13.902;2024-01-06T07:22:57;2.63;;;2.00;;
84931;SDS011;75193;53.980;13.902;2024-01-06T07:25:23;3.42;;;2.00;;
84931;SDS011;75193;53.980;13.902;2024-01-06T07:27:48;2.50;;;1.90;;
84931;SDS011;75193;53.980;13.902;2024-01-06T07:30:14;2.25;;;1.88;;
84931;SDS011;75193;53.980;13.902;2024-01-06T07:32:39;3.15;;;2.30;;
84931;SDS011;75193;53.980;13.902;2024-01-06T07:35:05;3.13;;;2.20;;
84931;SDS011;75193;53.980;13.902;2024-01-06T07:37:31;2.67;;;2.20;;
84931;SDS011;75193;53.980;13.902;2024-01-06T07:39:56;2.67;;;2.10;;
84931;SDS011;75193;53.980;13.902;2024-01-06T07:42:22;3.05;;;2.25;;
84931;SDS011;75193;53.980;13.902;2024-01-06T07:44:47;2.45;;;1.90;;
84931;SDS011;75193;53.980;13.902;2024-01-06T07:47:12;4.05;;;2.20;;
84931;SDS011;75193;53.980;13.902;2024-01-06T07:49:39;4.35;;;2.30;;
84931;SDS011;75193;53.980;13.902;2024-01-06T07:52:05;3.90;;;2.25;;
84931;SDS011;75193;53.980;13.902;2024-01-06T07:54:30;2.95;;;2.17;;
84931;SDS011;75193;53.980;13.902;2024-01-06T07:56:56;4.20;;;2.30;;
84931;SDS011;75193;53.980;13.902;2024-01-06T07:59:21;7.18;;;2.80;;
84931;SDS011;75193;53.980;13.902;2024-01-06T08:01:46;3.45;;;2.42;;
84931;SDS011;75193;53.980;13.902;2024-01-06T08:04:12;3.88;;;2.60;;
84931;SDS011;75193;53.980;13.902;2024-01-06T08:06:38;4.57;;;2.60;;
84931;SDS011;75193;53.980;13.902;2024-01-06T08:09:03;3.40;;;2.50;;
84931;SDS011;75193;53.980;13.902;2024-01-06T08:11:29;3.15;;;2.25;;
84931;SDS011;75193;53.980;13.902;2024-01-06T08:13:54;4.25;;;2.70;;
84931;SDS011;75193;53.980;13.902;2024-01-06T08:16:20;2.70;;;2.20;;
84931;SDS011;75193;53.980;13.902;2024-01-06T08:18:45;3.05;;;2.45;;
84931;SDS011;75193;53.980;13.902;2024-01-06T08:21:11;3.83;;;2.30;;
84931;SDS011;75193;53.980;13.902;2024-01-06T08:23:37;6.18;;;3.90;;
84931;SDS011;75193;53.980;13.902;2024-01-06T08:26:02;2.88;;;2.22;;
84931;SDS011;75193;53.980;13.902;2024-01-06T08:28:29;4.40;;;2.70;;
84931;SDS011;75193;53.980;13.902;2024-01-06T08:30:54;4.05;;;2.80;;
84931;SDS011;75193;53.980;13.902;2024-01-06T08:33:20;4.35;;;2.20;;
84931;SDS011;75193;53.980;13.902;2024-01-06T08:35:46;3.20;;;2.28;;
84931;SDS011;75193;53.980;13.902;2024-01-06T08:38:11;5.03;;;3.00;;
84931;SDS011;75193;53.980;13.902;2024-01-06T08:40:37;3.72;;;2.22;;
84931;SDS011;75193;53.980;13.902;2024-01-06T08:43:02;4.22;;;2.45;;
84931;SDS011;75193;53.980;13.902;2024-01-06T08:45:28;4.28;;;2.92;;
84931;SDS011;75193;53.980;13.902;2024-01-06T08:47:54;3.42;;;2.50;;
84931;SDS011;75193;53.980;13.902;2024-01-06T08:50:19;3.55;;;2.40;;
84931;SDS011;75193;53.980;13.902;2024-01-06T08:52:45;3.25;;;2.28;;
84931;SDS011;75193;53.980;13.902;2024-01-06T08:55:10;3.55;;;2.50;;
84931;SDS011;75193;53.980;13.902;2024-01-06T08:57:36;3.70;;;2.28;;
84931;SDS011;75193;53.980;13.902;2024-01-06T09:00:02;3.10;;;2.22;;
84931;SDS011;75193;53.980;13.902;2024-01-06T09:02:31;4.28;;;2.20;;
84931;SDS011;75193;53.980;13.902;2024-01-06T09:04:56;4.15;;;2.42;;
84931;SDS011;75193;53.980;13.902;2024-01-06T09:07:22;3.40;;;2.40;;
84931;SDS011;75193;53.980;13.902;2024-01-06T09:09:47;3.20;;;2.20;;
84931;SDS011;75193;53.980;13.902;2024-01-06T09:12:12;3.60;;;2.30;;
84931;SDS011;75193;53.980;13.902;2024-01-06T09:14:38;7.32;;;2.55;;
84931;SDS011;75193;53.980;13.902;2024-01-06T09:17:04;3.90;;;2.30;;
84931;SDS011;75193;53.980;13.902;2024-01-06T09:19:29;3.03;;;2.08;;
84931;SDS011;75193;53.980;13.902;2024-01-06T09:24:21;4.80;;;2.33;;
84931;SDS011;75193;53.980;13.902;2024-01-06T09:26:46;5.05;;;2.33;;
84931;SDS011;75193;53.980;13.902;2024-01-06T09:29:12;3.85;;;2.25;;
84931;SDS011;75193;53.980;13.902;2024-01-06T09:31:38;3.78;;;2.15;;
84931;SDS011;75193;53.980;13.902;2024-01-06T09:34:03;3.05;;;2.05;;
84931;SDS011;75193;53.980;13.902;2024-01-06T09:36:30;2.63;;;2.10;;
84931;SDS011;75193;53.980;13.902;2024-01-06T09:38:56;4.22;;;2.10;;
84931;SDS011;75193;53.980;13.902;2024-01-06T09:41:22;3.95;;;2.17;;
84931;SDS011;75193;53.980;13.902;2024-01-06T09:43:47;3.47;;;2.28;;
84931;SDS011;75193;53.980;13.902;2024-01-06T09:46:26;4.32;;;2.25;;
84931;SDS011;75193;53.980;13.902;2024-01-06T09:48:53;4.28;;;2.83;;
84931;SDS011;75193;53.980;13.902;2024-01-06T09:51:19;3.13;;;2.00;;
84931;SDS011;75193;53.980;13.902;2024-01-06T09:56:15;3.38;;;2.40;;
84931;SDS011;75193;53.980;13.902;2024-01-06T09:58:41;3.05;;;2.55;;
84931;SDS011;75193;53.980;13.902;2024-01-06T10:01:09;3.03;;;2.00;;
84931;SDS011;75193;53.980;13.902;2024-01-06T10:03:36;3.78;;;2.65;;
84931;SDS011;75193;53.980;13.902;2024-01-06T10:06:03;5.80;;;2.20;;
84931;SDS011;75193;53.980;13.902;2024-01-06T10:08:32;3.47;;;2.03;;
84931;SDS011;75193;53.980;13.902;2024-01-06T10:11:01;3.95;;;2.30;;
84931;SDS011;75193;53.980;13.902;2024-01-06T10:13:27;7.32;;;2.50;;
84931;SDS011;75193;53.980;13.902;2024-01-06T10:15:55;3.33;;;2.17;;
84931;SDS011;75193;53.980;13.902;2024-01-06T10:18:21;3.75;;;2.30;;
84931;SDS011;75193;53.980;13.902;2024-01-06T10:20:46;2.88;;;1.92;;
84931;SDS011;75193;53.980;13.902;2024-01-06T10:23:12;3.38;;;2.63;;
84931;SDS011;75193;53.980;13.902;2024-01-06T10:25:38;4.28;;;2.47;;
84931;SDS011;75193;53.980;13.902;2024-01-06T10:28:04;4.38;;;1.95;;
84931;SDS011;75193;53.980;13.902;2024-01-06T10:30:30;3.42;;;2.20;;
84931;SDS011;75193;53.980;13.902;2024-01-06T10:32:55;3.25;;;2.28;;
84931;SDS011;75193;53.980;13.902;2024-01-06T10:35:20;3.45;;;2.10;;
84931;SDS011;75193;53.980;13.902;2024-01-06T10:37:47;2.90;;;1.88;;
84931;SDS011;75193;53.980;13.902;2024-01-06T10:40:16;4.40;;;1.83;;
84931;SDS011;75193;53.980;13.902;2024-01-06T10:42:42;2.97;;;2.20;;
84931;SDS011;75193;53.980;13.902;2024-01-06T10:45:11;2.90;;;1.95;;
84931;SDS011;75193;53.980;13.902;2024-01-06T10:47:40;2.58;;;2.08;;
84931;SDS011;75193;53.980;13.902;2024-01-06T10:50:07;3.45;;;2.10;;
84931;SDS011;75193;53.980;13.902;2024-01-06T10:52:33;3.13;;;2.00;;
84931;SDS011;75193;53.980;13.902;2024-01-06T10:55:00;3.17;;;2.17;;
84931;SDS011;75193;53.980;13.902;2024-01-06T10:57:26;3.65;;;2.00;;
84931;SDS011;75193;53.980;13.902;2024-01-06T10:59:53;4.43;;;2.13;;
84931;SDS011;75193;53.980;13.902;2024-01-06T11:02:19;5.80;;;2.00;;
84931;SDS011;75193;53.980;13.902;2024-01-06T11:04:47;3.33;;;1.80;;
84931;SDS011;75193;53.980;13.902;2024-01-06T11:07:15;3.40;;;2.28;;
84931;SDS011;75193;53.980;13.902;2024-01-06T11:09:47;3.75;;;1.75;;
84931;SDS011;75193;53.980;13.902;2024-01-06T11:12:27;4.32;;;2.55;;
84931;SDS011;75193;53.980;13.902;2024-01-06T11:14:53;4.90;;;2.30;;
84931;SDS011;75193;53.980;13.902;2024-01-06T11:20:12;3.20;;;1.90;;
84931;SDS011;75193;53.980;13.902;2024-01-06T11:22:38;3.63;;;2.13;;
84931;SDS011;75193;53.980;13.902;2024-01-06T11:25:08;4.25;;;2.40;;
84931;SDS011;75193;53.980;13.902;2024-01-06T11:27:40;4.00;;;2.20;;
84931;SDS011;75193;53.980;13.902;2024-01-06T11:30:07;3.20;;;2.20;;
84931;SDS011;75193;53.980;13.902;2024-01-06T11:32:33;3.25;;;2.13;;
84931;SDS011;75193;53.980;13.902;2024-01-06T11:35:05;3.67;;;2.22;;
84931;SDS011;75193;53.980;13.902;2024-01-06T11:40:15;3.83;;;2.10;;
84931;SDS011;75193;53.980;13.902;2024-01-06T11:43:08;3.55;;;2.53;;
84931;SDS011;75193;53.980;13.902;2024-01-06T11:45:41;3.35;;;1.90;;
84931;SDS011;75193;53.980;13.902;2024-01-06T11:48:07;4.68;;;2.10;;
84931;SDS011;75193;53.980;13.902;2024-01-06T11:50:35;3.42;;;2.15;;
84931;SDS011;75193;53.980;13.902;2024-01-06T11:53:02;3.92;;;2.13;;
84931;SDS011;75193;53.980;13.902;2024-01-06T11:55:29;3.80;;;2.08;;
84931;SDS011;75193;53.980;13.902;2024-01-06T11:57:57;4.13;;;2.28;;
84931;SDS011;75193;53.980;13.902;2024-01-06T12:00:27;3.38;;;2.00;;
84931;SDS011;75193;53.980;13.902;2024-01-06T12:02:56;3.85;;;2.17;;
84931;SDS011;75193;53.980;13.902;2024-01-06T12:05:22;3.30;;;1.65;;
84931;SDS011;75193;53.980;13.902;2024-01-06T12:07:56;4.60;;;2.13;;
84931;SDS011;75193;53.980;13.902;2024-01-06T12:10:27;4.65;;;2.17;;
84931;SDS011;75193;53.980;13.902;2024-01-06T12:15:30;2.95;;;2.08;;
84931;SDS011;75193;53.980;13.902;2024-01-06T12:17:56;3.22;;;2.40;;
84931;SDS011;75193;53.980;13.902;2024-01-06T12:22:49;3.75;;;2.30;;
84931;SDS011;75193;53.980;13.902;2024-01-06T12:25:18;2.78;;;2.13;;
84931;SDS011;75193;53.980;13.902;2024-01-06T12:27:44;2.90;;;2.08;;
84931;SDS011;75193;53.980;13.902;2024-01-06T12:30:16;4.40;;;2.28;;
84931;SDS011;75193;53.980;13.902;2024-01-06T12:32:44;2.72;;;2.00;;
84931;SDS011;75193;53.980;13.902;2024-01-06T12:35:11;2.30;;;1.90;;
84931;SDS011;75193;53.980;13.902;2024-01-06T12:37:37;3.33;;;2.20;;
84931;SDS011;75193;53.980;13.902;2024-01-06T12:40:03;3.63;;;2.25;;
84931;SDS011;75193;53.980;13.902;2024-01-06T12:42:29;2.88;;;2.00;;
84931;SDS011;75193;53.980;13.902;2024-01-06T12:44:54;4.10;;;2.25;;
84931;SDS011;75193;53.980;13.902;2024-01-06T12:47:20;3.33;;;2.17;;
84931;SDS011;75193;53.980;13.902;2024-01-06T12:49:45;5.72;;;2.03;;
84931;SDS011;75193;53.980;13.902;2024-01-06T12:52:12;3.42;;;1.90;;
84931;SDS011;75193;53.980;13.902;2024-01-06T12:54:38;4.50;;;2.38;;
84931;SDS011;75193;53.980;13.902;2024-01-06T12:57:04;3.72;;;2.17;;
84931;SDS011;75193;53.980;13.902;2024-01-06T12:59:30;6.38;;;2.50;;
84931;SDS011;75193;53.980;13.902;2024-01-06T13:01:55;3.53;;;1.98;;
84931;SDS011;75193;53.980;13.902;2024-01-06T13:04:21;3.13;;;1.90;;
84931;SDS011;75193;53.980;13.902;2024-01-06T13:06:47;2.55;;;1.80;;
84931;SDS011;75193;53.980;13.902;2024-01-06T13:09:14;3.75;;;2.10;;
84931;SDS011;75193;53.980;13.902;2024-01-06T13:11:41;4.05;;;2.10;;
84931;SDS011;75193;53.980;13.902;2024-01-06T13:14:07;3.25;;;2.15;;
84931;SDS011;75193;53.980;13.902;2024-01-06T13:16:32;3.55;;;2.10;;
84931;SDS011;75193;53.980;13.902;2024-01-06T13:18:58;3.08;;;1.98;;
84931;SDS011;75193;53.980;13.902;2024-01-06T13:21:24;2.65;;;1.70;;
84931;SDS011;75193;53.980;13.902;2024-01-06T13:23:50;3.08;;;1.90;;
84931;SDS011;75193;53.980;13.902;2024-01-06T13:26:15;3.58;;;2.00;;
84931;SDS011;75193;53.980;13.902;2024-01-06T13:28:41;3.50;;;1.83;;
84931;SDS011;75193;53.980;13.902;2024-01-06T13:31:06;3.28;;;1.92;;
84931;SDS011;75193;53.980;13.902;2024-01-06T13:33:32;6.47;;;1.90;;
84931;SDS011;75193;53.980;13.902;2024-01-06T13:35:57;2.92;;;1.90;;
84931;SDS011;75193;53.980;13.902;2024-01-06T13:38:23;3.55;;;1.90;;
84931;SDS011;75193;53.980;13.902;2024-01-06T13:41:11;3.58;;;1.67;;
84931;SDS011;75193;53.980;13.902;2024-01-06T13:43:37;2.85;;;2.00;;
84931;SDS011;75193;53.980;13.902;2024-01-06T13:46:02;2.42;;;1.60;;
84931;SDS011;75193;53.980;13.902;2024-01-06T13:48:28;2.70;;;1.80;;
84931;SDS011;75193;53.980;13.902;2024-01-06T13:50:53;3.15;;;1.85;;
84931;SDS011;75193;53.980;13.902;2024-01-06T13:53:19;3.00;;;1.92;;
84931;SDS011;75193;53.980;13.902;2024-01-06T13:55:44;7.40;;;2.08;;
84931;SDS011;75193;53.980;13.902;2024-01-06T13:58:10;2.03;;;1.80;;
84931;SDS011;75193;53.980;13.902;2024-01-06T14:00:36;4.30;;;2.25;;
84931;SDS011;75193;53.980;13.902;2024-01-06T14:03:02;4.63;;;2.00;;
84931;SDS011;75193;53.980;13.902;2024-01-06T14:05:28;3.25;;;1.70;;
84931;SDS011;75193;53.980;13.902;2024-01-06T14:07:53;2.78;;;1.90;;
84931;SDS011;75193;53.980;13.902;2024-01-06T14:10:19;3.10;;;1.90;;
84931;SDS011;75193;53.980;13.902;2024-01-06T14:12:45;2.40;;;1.98;;
84931;SDS011;75193;53.980;13.902;2024-01-06T14:15:10;3.67;;;2.00;;
84931;SDS011;75193;53.980;13.902;2024-01-06T14:17:36;3.47;;;1.85;;
84931;SDS011;75193;53.980;13.902;2024-01-06T14:20:03;2.80;;;1.88;;
84931;SDS011;75193;53.980;13.902;2024-01-06T14:24:54;3.35;;;1.73;;
84931;SDS011;75193;53.980;13.902;2024-01-06T14:27:20;2.22;;;1.63;;
84931;SDS011;75193;53.980;13.902;2024-01-06T14:29:45;2.03;;;1.50;;
84931;SDS011;75193;53.980;13.902;2024-01-06T14:32:11;3.97;;;1.77;;
84931;SDS011;75193;53.980;13.902;2024-01-06T14:34:38;2.78;;;1.50;;
84931;SDS011;75193;53.980;13.902;2024-01-06T14:37:04;3.00;;;1.73;;
84931;SDS011;75193;53.980;13.902;2024-01-06T14:39:29;3.05;;;1.90;;
84931;SDS011;75193;53.980;13.902;2024-01-06T14:41:55;3.80;;;1.70;;
84931;SDS011;75193;53.980;13.902;2024-01-06T14:44:20;3.17;;;1.90;;
84931;SDS011;75193;53.980;13.902;2024-01-06T14:46:46;5.45;;;2.00;;
84931;SDS011;75193;53.980;13.902;2024-01-06T14:49:12;3.30;;;1.85;;
84931;SDS011;75193;53.980;13.902;2024-01-06T14:51:38;2.97;;;1.67;;